createdAt,value
2022-09-11T00:00:32.600Z,1010.99
2022-09-11T00:01:32.645Z,1011.07
2022-09-11T00:02:32.648Z,1011.04
2022-09-11T00:03:32.657Z,1011.08
2022-09-11T00:04:32.578Z,1011.09
2022-09-11T00:05:33.746Z,1011.05
2022-09-11T00:06:32.538Z,1011.04
2022-09-11T00:07:55.786Z,1011.06
2022-09-11T00:08:32.511Z,1011.06
2022-09-11T00:09:32.549Z,1011.03
2022-09-11T00:10:32.487Z,1011.01
2022-09-11T00:11:33.560Z,1011.02
2022-09-11T00:12:32.469Z,1011.03
2022-09-11T00:13:32.639Z,1011.02
2022-09-11T00:14:32.464Z,1011.03
2022-09-11T00:15:33.458Z,1010.99
2022-09-11T00:16:32.478Z,1010.98
2022-09-11T00:17:32.449Z,1011.01
2022-09-11T00:18:32.400Z,1010.99
2022-09-11T00:19:32.516Z,1010.97
2022-09-11T00:20:32.385Z,1011.01
2022-09-11T00:21:32.476Z,1010.98
2022-09-11T00:22:32.365Z,1010.95
2022-09-11T00:23:32.404Z,1010.99
2022-09-11T00:24:32.354Z,1011.00
2022-09-11T00:25:32.400Z,1011.01
2022-09-11T00:26:32.315Z,1011.01
2022-09-11T00:27:32.414Z,1010.99
2022-09-11T00:28:32.297Z,1011.01
2022-09-11T00:29:32.392Z,1011.02
2022-09-11T00:30:32.277Z,1011.01
2022-09-11T00:31:32.774Z,1011.03
2022-09-11T00:32:32.250Z,1011.04
2022-09-11T00:33:32.566Z,1011.01
2022-09-11T00:34:32.227Z,1011.00
2022-09-11T00:35:32.267Z,1011.00
2022-09-11T00:36:32.208Z,1011.05
2022-09-11T00:37:32.277Z,1011.06
2022-09-11T00:38:32.372Z,1011.01
2022-09-11T00:39:32.191Z,1011.02
2022-09-11T00:40:32.170Z,1011.05
2022-09-11T00:41:32.205Z,1011.07
2022-09-11T00:42:32.143Z,1011.08
2022-09-11T00:43:32.346Z,1011.07
2022-09-11T00:44:32.136Z,1011.09
2022-09-11T00:45:32.203Z,1011.04
2022-09-11T00:46:32.101Z,1010.99
2022-09-11T00:47:32.154Z,1011.05
2022-09-11T00:48:32.078Z,1011.03
2022-09-11T00:49:34.161Z,1011.05
2022-09-11T00:50:32.056Z,1011.08
2022-09-11T00:51:34.119Z,1011.04
2022-09-11T00:52:32.035Z,1011.08
2022-09-11T00:53:33.122Z,1011.08
2022-09-11T00:54:32.029Z,1011.10
2022-09-11T00:55:32.207Z,1011.09
2022-09-11T00:56:31.995Z,1011.10
2022-09-11T00:57:32.006Z,1011.07
2022-09-11T00:58:31.973Z,1011.11
2022-09-11T00:59:32.075Z,1011.08
2022-09-11T01:00:31.974Z,1011.10
2022-09-11T01:01:32.086Z,1011.14
2022-09-11T01:02:31.966Z,1011.06
2022-09-11T01:03:31.945Z,1011.12
2022-09-11T01:04:31.926Z,1011.09
2022-09-11T01:05:31.958Z,1011.11
2022-09-11T01:06:31.886Z,1011.13
2022-09-11T01:07:31.975Z,1011.12
2022-09-11T01:08:35.323Z,1011.08
2022-09-11T01:09:32.961Z,1011.12
2022-09-11T01:10:31.833Z,1011.12
2022-09-11T01:11:31.897Z,1011.14
2022-09-11T01:12:31.818Z,1011.17
2022-09-11T01:13:32.025Z,1011.18
2022-09-11T01:14:34.466Z,1011.17
2022-09-11T01:15:31.822Z,1011.23
2022-09-11T01:16:31.855Z,1011.27
2022-09-11T01:17:31.851Z,1011.21
2022-09-11T01:18:31.771Z,1011.25
2022-09-11T01:19:31.804Z,1011.26
2022-09-11T01:20:31.735Z,1011.29
2022-09-11T01:21:34.497Z,1011.27
2022-09-11T01:22:31.712Z,1011.39
2022-09-11T01:23:31.776Z,1011.40
2022-09-11T01:24:31.703Z,1011.41
2022-09-11T01:25:31.686Z,1011.45
2022-09-11T01:26:31.668Z,1011.41
2022-09-11T01:27:31.700Z,1011.44
2022-09-11T01:28:31.646Z,1011.43
2022-09-11T01:29:31.661Z,1011.47
2022-09-11T01:30:31.622Z,1011.47
2022-09-11T01:31:31.637Z,1011.49
2022-09-11T01:32:31.599Z,1011.45
2022-09-11T01:33:31.666Z,1011.51
2022-09-11T01:34:31.611Z,1011.50
2022-09-11T01:35:31.654Z,1011.50
2022-09-11T01:36:31.560Z,1011.47
2022-09-11T01:37:52.662Z,1011.48
2022-09-11T01:38:31.541Z,1011.45
2022-09-11T01:39:31.630Z,1011.45
2022-09-11T01:40:31.519Z,1011.55
2022-09-11T01:41:33.539Z,1011.53
2022-09-11T01:42:31.496Z,1011.54
2022-09-11T01:43:31.519Z,1011.50
2022-09-11T01:44:31.493Z,1011.54
2022-09-11T01:45:31.574Z,1011.54
2022-09-11T01:46:31.453Z,1011.57
2022-09-11T01:47:31.546Z,1011.51
2022-09-11T01:48:31.426Z,1011.58
2022-09-11T01:49:31.517Z,1011.55
2022-09-11T01:50:31.403Z,1011.59
2022-09-11T01:51:31.480Z,1011.58
2022-09-11T01:52:31.396Z,1011.59
2022-09-11T01:53:31.484Z,1011.57
2022-09-11T01:54:31.377Z,1011.59
2022-09-11T01:55:31.384Z,1011.63
2022-09-11T01:56:31.334Z,1011.63
2022-09-11T01:57:31.394Z,1011.66
2022-09-11T01:58:31.323Z,1011.65
2022-09-11T01:59:31.361Z,1011.68
2022-09-11T02:00:31.323Z,1011.70
2022-09-11T02:01:31.325Z,1011.64
2022-09-11T02:02:31.374Z,1011.64
2022-09-11T02:03:31.403Z,1011.69
2022-09-11T02:04:31.318Z,1011.68
2022-09-11T02:05:31.364Z,1011.67
2022-09-11T02:06:31.296Z,1011.65
2022-09-11T02:07:31.380Z,1011.66
2022-09-11T02:08:31.208Z,1011.65
2022-09-11T02:09:31.337Z,1011.66
2022-09-11T02:10:31.183Z,1011.65
2022-09-11T02:11:31.193Z,1011.63
2022-09-11T02:12:31.222Z,1011.59
2022-09-11T02:13:31.219Z,1011.62
2022-09-11T02:14:31.154Z,1011.62
2022-09-11T02:15:31.290Z,1011.62
2022-09-11T02:16:31.134Z,1011.65
2022-09-11T02:17:31.127Z,1011.61
2022-09-11T02:18:31.090Z,1011.63
2022-09-11T02:19:31.188Z,1011.65
2022-09-11T02:20:31.069Z,1011.61
2022-09-11T02:21:31.174Z,1011.64
2022-09-11T02:22:31.042Z,1011.68
2022-09-11T02:23:32.086Z,1011.65
2022-09-11T02:24:31.040Z,1011.71
2022-09-11T02:25:32.109Z,1011.67
2022-09-11T02:26:31.004Z,1011.69
2022-09-11T02:27:32.014Z,1011.63
2022-09-11T02:28:30.980Z,1011.69
2022-09-11T02:29:31.079Z,1011.71
2022-09-11T02:30:30.978Z,1011.73
2022-09-11T02:31:31.095Z,1011.75
2022-09-11T02:32:30.931Z,1011.71
2022-09-11T02:33:31.049Z,1011.74
2022-09-11T02:34:30.928Z,1011.73
2022-09-11T02:35:30.941Z,1011.75
2022-09-11T02:36:30.892Z,1011.76
2022-09-11T02:37:30.974Z,1011.74
2022-09-11T02:38:30.865Z,1011.77
2022-09-11T02:39:30.922Z,1011.77
2022-09-11T02:40:30.842Z,1011.80
2022-09-11T02:41:30.884Z,1011.79
2022-09-11T02:42:30.823Z,1011.78
2022-09-11T02:43:30.897Z,1011.78
2022-09-11T02:44:30.813Z,1011.81
2022-09-11T02:45:30.888Z,1011.81
2022-09-11T02:46:30.778Z,1011.79
2022-09-11T02:47:30.823Z,1011.80
2022-09-11T02:48:30.755Z,1011.83
2022-09-11T02:49:30.787Z,1011.84
2022-09-11T02:50:30.747Z,1011.81
2022-09-11T02:51:30.748Z,1011.85
2022-09-11T02:52:30.709Z,1011.83
2022-09-11T02:53:30.779Z,1011.87
2022-09-11T02:54:30.705Z,1011.86
2022-09-11T02:55:30.774Z,1011.84
2022-09-11T02:56:30.682Z,1011.90
2022-09-11T02:57:30.686Z,1011.89
2022-09-11T02:58:30.639Z,1011.89
2022-09-11T02:59:30.828Z,1011.90
2022-09-11T03:00:30.682Z,1011.96
2022-09-11T03:01:30.737Z,1011.95
2022-09-11T03:02:30.597Z,1011.95
2022-09-11T03:03:32.673Z,1011.92
2022-09-11T03:04:30.590Z,1011.89
2022-09-11T03:05:31.685Z,1011.93
2022-09-11T03:06:30.551Z,1011.89
2022-09-11T03:07:30.653Z,1011.92
2022-09-11T03:08:30.528Z,1011.95
2022-09-11T03:09:32.578Z,1011.96
2022-09-11T03:10:30.505Z,1012.03
2022-09-11T03:11:32.523Z,1012.00
2022-09-11T03:12:30.483Z,1012.01
2022-09-11T03:13:30.490Z,1012.05
2022-09-11T03:14:30.474Z,1012.03
2022-09-11T03:15:30.499Z,1011.96
2022-09-11T03:16:30.475Z,1011.97
2022-09-11T03:17:30.516Z,1011.98
2022-09-11T03:18:30.412Z,1011.97
2022-09-11T03:19:30.482Z,1011.98
2022-09-11T03:20:30.393Z,1012.00
2022-09-11T03:21:30.442Z,1011.97
2022-09-11T03:22:30.367Z,1012.01
2022-09-11T03:23:30.456Z,1012.00
2022-09-11T03:24:30.363Z,1011.96
2022-09-11T03:25:30.381Z,1011.97
2022-09-11T03:26:30.320Z,1012.00
2022-09-11T03:27:30.384Z,1012.00
2022-09-11T03:28:30.298Z,1011.97
2022-09-11T03:29:30.346Z,1012.01
2022-09-11T03:30:30.274Z,1011.99
2022-09-11T03:31:30.349Z,1011.97
2022-09-11T03:32:30.271Z,1012.01
2022-09-11T03:33:30.320Z,1012.05
2022-09-11T03:34:30.267Z,1012.01
2022-09-11T03:35:30.333Z,1012.03
2022-09-11T03:36:30.210Z,1012.06
2022-09-11T03:37:30.241Z,1012.06
2022-09-11T03:38:30.186Z,1012.11
2022-09-11T03:39:30.210Z,1012.10
2022-09-11T03:40:30.168Z,1012.13
2022-09-11T03:41:30.187Z,1012.16
2022-09-11T03:42:30.148Z,1012.13
2022-09-11T03:43:30.185Z,1012.12
2022-09-11T03:44:30.139Z,1012.15
2022-09-11T03:45:30.306Z,1012.15
2022-09-11T03:46:30.098Z,1012.16
2022-09-11T03:47:32.334Z,1012.18
2022-09-11T03:48:30.077Z,1012.12
2022-09-11T03:49:30.184Z,1012.14
2022-09-11T03:50:30.051Z,1012.15
2022-09-11T03:52:39.721Z,1012.12
2022-09-11T03:53:39.619Z,1012.14
2022-09-11T03:54:39.733Z,1012.15
2022-09-11T03:55:39.599Z,1012.18
2022-09-11T03:56:39.604Z,1012.15
2022-09-11T03:57:39.578Z,1012.11
2022-09-11T03:58:39.603Z,1012.08
2022-09-11T03:59:39.568Z,1012.12
2022-09-11T04:00:39.648Z,1012.11
2022-09-11T04:01:39.553Z,1012.12
2022-09-11T04:02:41.577Z,1012.13
2022-09-11T04:03:39.513Z,1012.15
2022-09-11T04:04:39.598Z,1012.16
2022-09-11T04:05:39.483Z,1012.13
2022-09-11T04:06:40.596Z,1012.13
2022-09-11T04:07:39.463Z,1012.14
2022-09-11T04:08:39.468Z,1012.09
2022-09-11T04:09:39.461Z,1012.15
2022-09-11T04:11:00.483Z,1012.18
2022-09-11T04:11:39.419Z,1012.18
2022-09-11T04:12:39.418Z,1012.16
2022-09-11T04:13:40.482Z,1012.20
2022-09-11T04:14:39.403Z,1012.17
2022-09-11T04:15:39.415Z,1012.18
2022-09-11T04:16:39.425Z,1012.21
2022-09-11T04:17:39.428Z,1012.17
2022-09-11T04:18:39.338Z,1012.19
2022-09-11T04:19:39.394Z,1012.21
2022-09-11T04:20:39.317Z,1012.27
2022-09-11T04:21:39.354Z,1012.25
2022-09-11T04:22:39.391Z,1012.28
2022-09-11T04:23:39.371Z,1012.27
2022-09-11T04:24:39.296Z,1012.29
2022-09-11T04:25:39.280Z,1012.27
2022-09-11T04:26:39.254Z,1012.27
2022-09-11T04:27:39.296Z,1012.34
2022-09-11T04:28:39.241Z,1012.30
2022-09-11T04:29:39.253Z,1012.35
2022-09-11T04:30:39.202Z,1012.32
2022-09-11T04:31:39.249Z,1012.34
2022-09-11T04:32:39.188Z,1012.34
2022-09-11T04:33:39.233Z,1012.36
2022-09-11T04:34:39.180Z,1012.40
2022-09-11T04:35:39.245Z,1012.40
2022-09-11T04:36:39.142Z,1012.44
2022-09-11T04:37:39.162Z,1012.42
2022-09-11T04:38:39.119Z,1012.40
2022-09-11T04:39:39.289Z,1012.42
2022-09-11T04:40:39.091Z,1012.40
2022-09-11T04:41:39.188Z,1012.42
2022-09-11T04:42:39.068Z,1012.43
2022-09-11T04:43:39.248Z,1012.42
2022-09-11T04:44:39.066Z,1012.44
2022-09-11T04:45:39.145Z,1012.47
2022-09-11T04:46:39.029Z,1012.44
2022-09-11T04:47:39.126Z,1012.45
2022-09-11T04:48:39.050Z,1012.44
2022-09-11T04:49:41.088Z,1012.49
2022-09-11T04:50:38.978Z,1012.46
2022-09-11T04:52:01.998Z,1012.51
2022-09-11T04:52:38.973Z,1012.50
2022-09-11T04:53:39.072Z,1012.51
2022-09-11T04:54:38.938Z,1012.50
2022-09-11T04:55:38.975Z,1012.52
2022-09-11T04:56:38.912Z,1012.49
2022-09-11T04:57:40.937Z,1012.49
2022-09-11T04:58:38.903Z,1012.52
2022-09-11T04:59:38.901Z,1012.53
2022-09-11T05:00:38.938Z,1012.55
2022-09-11T05:01:38.916Z,1012.49
2022-09-11T05:02:38.845Z,1012.50
2022-09-11T05:03:38.925Z,1012.51
2022-09-11T05:04:38.826Z,1012.51
2022-09-11T05:05:38.841Z,1012.55
2022-09-11T05:06:38.801Z,1012.56
2022-09-11T05:07:38.871Z,1012.54
2022-09-11T05:08:38.797Z,1012.67
2022-09-11T05:09:38.888Z,1012.68
2022-09-11T05:10:38.759Z,1012.76
2022-09-11T05:11:38.793Z,1012.69
2022-09-11T05:12:38.746Z,1012.68
2022-09-11T05:13:38.945Z,1012.71
2022-09-11T05:14:38.711Z,1012.75
2022-09-11T05:15:38.835Z,1012.72
2022-09-11T05:16:38.726Z,1012.75
2022-09-11T05:17:38.828Z,1012.74
2022-09-11T05:18:38.681Z,1012.74
2022-09-11T05:19:38.730Z,1012.76
2022-09-11T05:20:38.642Z,1012.78
2022-09-11T05:21:38.644Z,1012.82
2022-09-11T05:22:38.689Z,1012.89
2022-09-11T05:23:38.717Z,1012.85
2022-09-11T05:24:38.591Z,1012.89
2022-09-11T05:25:38.684Z,1012.91
2022-09-11T05:26:38.574Z,1012.92
2022-09-11T05:27:38.600Z,1012.91
2022-09-11T05:28:38.570Z,1012.94
2022-09-11T05:29:38.600Z,1012.91
2022-09-11T05:30:38.530Z,1012.98
2022-09-11T05:31:38.632Z,1012.96
2022-09-11T05:32:38.523Z,1012.98
2022-09-11T05:33:38.651Z,1012.97
2022-09-11T05:34:38.484Z,1012.94
2022-09-11T05:36:00.553Z,1012.99
2022-09-11T05:36:38.457Z,1012.87
2022-09-11T05:37:38.446Z,1012.89
2022-09-11T05:38:38.507Z,1012.95
2022-09-11T05:39:38.484Z,1012.94
2022-09-11T05:40:38.472Z,1012.94
2022-09-11T05:41:38.404Z,1013.01
2022-09-11T05:42:38.484Z,1013.01
2022-09-11T05:43:38.458Z,1013.00
2022-09-11T05:44:38.408Z,1012.96
2022-09-11T05:45:38.386Z,1013.05
2022-09-11T05:46:38.406Z,1013.05
2022-09-11T05:47:38.338Z,1013.08
2022-09-11T05:48:38.372Z,1013.06
2022-09-11T05:49:38.317Z,1013.09
2022-09-11T05:50:38.332Z,1013.14
2022-09-11T05:51:38.293Z,1013.11
2022-09-11T05:52:38.345Z,1013.16
2022-09-11T05:53:38.379Z,1013.15
2022-09-11T05:54:38.362Z,1013.15
2022-09-11T05:55:38.246Z,1013.15
2022-09-11T05:56:38.270Z,1013.16
2022-09-11T05:57:38.224Z,1013.19
2022-09-11T05:58:38.336Z,1013.20
2022-09-11T05:59:38.196Z,1013.19
2022-09-11T06:00:38.302Z,1013.18
2022-09-11T06:01:38.219Z,1013.26
2022-09-11T06:02:38.209Z,1013.25
2022-09-11T06:03:38.174Z,1013.33
2022-09-11T06:04:38.245Z,1013.31
2022-09-11T06:05:38.141Z,1013.34
2022-09-11T06:06:38.136Z,1013.33
2022-09-11T06:07:38.111Z,1013.36
2022-09-11T06:08:38.198Z,1013.37
2022-09-11T06:09:38.189Z,1013.38
2022-09-11T06:10:38.163Z,1013.41
2022-09-11T06:11:38.065Z,1013.41
2022-09-11T06:12:38.074Z,1013.45
2022-09-11T06:13:38.072Z,1013.46
2022-09-11T06:14:38.087Z,1013.48
2022-09-11T06:15:46.708Z,1013.48
2022-09-11T06:16:39.044Z,1013.48
2022-09-11T06:17:38.109Z,1013.49
2022-09-11T06:18:37.993Z,1013.49
2022-09-11T06:19:38.285Z,1013.47
2022-09-11T06:20:37.982Z,1013.45
2022-09-11T06:21:39.983Z,1013.47
2022-09-11T06:22:37.943Z,1013.50
2022-09-11T06:23:39.011Z,1013.49
2022-09-11T06:24:37.936Z,1013.49
2022-09-11T06:25:37.962Z,1013.47
2022-09-11T06:26:37.897Z,1013.46
2022-09-11T06:27:37.974Z,1013.45
2022-09-11T06:28:37.875Z,1013.49
2022-09-11T06:29:37.939Z,1013.50
2022-09-11T06:30:37.900Z,1013.50
2022-09-11T06:31:37.899Z,1013.54
2022-09-11T06:32:37.832Z,1013.52
2022-09-11T06:33:37.913Z,1013.50
2022-09-11T06:34:37.877Z,1013.57
2022-09-11T06:35:37.826Z,1013.54
2022-09-11T06:36:37.803Z,1013.57
2022-09-11T06:37:37.856Z,1013.57
2022-09-11T06:38:37.766Z,1013.59
2022-09-11T06:39:37.859Z,1013.63
2022-09-11T06:40:37.743Z,1013.64
2022-09-11T06:41:37.764Z,1013.63
2022-09-11T06:42:37.725Z,1013.63
2022-09-11T06:43:37.777Z,1013.62
2022-09-11T06:44:37.721Z,1013.62
2022-09-11T06:45:37.835Z,1013.64
2022-09-11T06:46:37.678Z,1013.69
2022-09-11T06:47:37.705Z,1013.58
2022-09-11T06:48:37.659Z,1013.61
2022-09-11T06:49:37.790Z,1013.62
2022-09-11T06:50:37.632Z,1013.65
2022-09-11T06:51:37.730Z,1013.59
2022-09-11T06:52:37.631Z,1013.58
2022-09-11T06:53:37.643Z,1013.62
2022-09-11T06:54:37.622Z,1013.57
2022-09-11T06:55:37.654Z,1013.57
2022-09-11T06:56:37.567Z,1013.54
2022-09-11T06:57:41.739Z,1013.58
2022-09-11T06:58:37.549Z,1013.55
2022-09-11T06:59:37.638Z,1013.52
2022-09-11T07:00:37.526Z,1013.56
2022-09-11T07:01:38.727Z,1013.54
2022-09-11T07:02:37.502Z,1013.58
2022-09-11T07:03:37.608Z,1013.59
2022-09-11T07:04:37.499Z,1013.60
2022-09-11T07:05:58.512Z,1013.59
2022-09-11T07:06:37.464Z,1013.62
2022-09-11T07:07:37.469Z,1013.63
2022-09-11T07:08:38.476Z,1013.65
2022-09-11T07:09:37.441Z,1013.58
2022-09-11T07:10:37.450Z,1013.62
2022-09-11T07:11:37.402Z,1013.61
2022-09-11T07:12:37.467Z,1013.65
2022-09-11T07:13:37.656Z,1013.68
2022-09-11T07:14:37.431Z,1013.69
2022-09-11T07:15:37.360Z,1013.69
2022-09-11T07:16:37.509Z,1013.75
2022-09-11T07:17:37.337Z,1013.70
2022-09-11T07:18:37.429Z,1013.69
2022-09-11T07:19:37.334Z,1013.71
2022-09-11T07:20:37.414Z,1013.70
2022-09-11T07:21:37.294Z,1013.71
2022-09-11T07:22:37.327Z,1013.73
2022-09-11T07:23:37.272Z,1013.71
2022-09-11T07:24:37.305Z,1013.72
2022-09-11T07:25:37.254Z,1013.71
2022-09-11T07:26:37.254Z,1013.71
2022-09-11T07:27:37.226Z,1013.70
2022-09-11T07:28:37.269Z,1013.74
2022-09-11T07:29:37.223Z,1013.75
2022-09-11T07:30:37.411Z,1013.75
2022-09-11T07:31:37.188Z,1013.76
2022-09-11T07:32:37.192Z,1013.73
2022-09-11T07:33:37.162Z,1013.76
2022-09-11T07:34:37.271Z,1013.74
2022-09-11T07:35:37.138Z,1013.79
2022-09-11T07:36:37.225Z,1013.82
2022-09-11T07:37:37.115Z,1013.79
2022-09-11T07:38:37.132Z,1013.80
2022-09-11T07:39:37.184Z,1013.82
2022-09-11T07:40:37.161Z,1013.85
2022-09-11T07:41:37.074Z,1013.85
2022-09-11T07:42:37.162Z,1013.84
2022-09-11T07:43:37.049Z,1013.88
2022-09-11T07:44:37.125Z,1013.83
2022-09-11T07:45:37.055Z,1013.83
2022-09-11T07:46:38.109Z,1013.84
2022-09-11T07:47:37.010Z,1013.84
2022-09-11T07:48:59.012Z,1013.85
2022-09-11T07:49:37.009Z,1013.85
2022-09-11T07:50:36.973Z,1013.86
2022-09-11T07:51:37.018Z,1013.86
2022-09-11T07:52:36.949Z,1013.90
2022-09-11T07:53:37.032Z,1013.91
2022-09-11T07:54:36.946Z,1013.91
2022-09-11T07:55:37.043Z,1013.92
2022-09-11T07:56:36.929Z,1013.93
2022-09-11T07:57:36.955Z,1013.95
2022-09-11T07:58:36.886Z,1013.94
2022-09-11T07:59:36.925Z,1013.91
2022-09-11T08:00:37.241Z,1013.89
2022-09-11T08:01:36.969Z,1013.92
2022-09-11T08:02:36.898Z,1013.97
2022-09-11T08:03:36.895Z,1013.98
2022-09-11T08:04:36.835Z,1014.00
2022-09-11T08:05:36.908Z,1014.03
2022-09-11T08:06:36.799Z,1014.04
2022-09-11T08:07:36.827Z,1014.01
2022-09-11T08:08:36.774Z,1014.06
2022-09-11T08:09:36.896Z,1014.06
2022-09-11T08:10:36.759Z,1014.03
2022-09-11T08:11:36.847Z,1014.04
2022-09-11T08:12:36.741Z,1014.05
2022-09-11T08:13:36.762Z,1014.06
2022-09-11T08:14:36.724Z,1014.03
2022-09-11T08:15:36.772Z,1014.08
2022-09-11T08:16:36.789Z,1014.08
2022-09-11T08:17:36.790Z,1014.09
2022-09-11T08:18:36.670Z,1014.10
2022-09-11T08:19:36.750Z,1014.02
2022-09-11T08:20:36.639Z,1014.07
2022-09-11T08:21:36.711Z,1014.04
2022-09-11T08:22:36.621Z,1014.12
2022-09-11T08:23:36.724Z,1014.07
2022-09-11T08:24:36.618Z,1014.09
2022-09-11T08:25:36.641Z,1014.04
2022-09-11T08:26:36.578Z,1014.09
2022-09-11T08:27:36.566Z,1014.04
2022-09-11T08:28:36.673Z,1014.07
2022-09-11T08:29:36.564Z,1014.12
2022-09-11T08:30:36.527Z,1014.06
2022-09-11T08:31:36.548Z,1014.08
2022-09-11T08:32:59.626Z,1014.10
2022-09-11T08:33:36.501Z,1014.11
2022-09-11T08:34:36.545Z,1014.05
2022-09-11T08:35:36.474Z,1014.10
2022-09-11T08:36:36.506Z,1014.14
2022-09-11T08:37:36.451Z,1014.11
2022-09-11T08:38:38.476Z,1014.15
2022-09-11T08:39:36.556Z,1014.13
2022-09-11T08:40:36.540Z,1014.15
2022-09-11T08:41:36.424Z,1014.15
2022-09-11T08:42:36.449Z,1014.18
2022-09-11T08:43:36.386Z,1014.18
2022-09-11T08:44:39.232Z,1014.19
2022-09-11T08:45:36.462Z,1014.22
2022-09-11T08:46:36.372Z,1014.20
2022-09-11T08:47:36.345Z,1014.26
2022-09-11T08:48:36.388Z,1014.30
2022-09-11T08:49:36.340Z,1014.31
2022-09-11T08:50:36.403Z,1014.35
2022-09-11T08:51:36.303Z,1014.32
2022-09-11T08:52:36.318Z,1014.34
2022-09-11T08:53:36.278Z,1014.40
2022-09-11T08:54:36.375Z,1014.39
2022-09-11T08:55:36.260Z,1014.36
2022-09-11T08:56:36.341Z,1014.41
2022-09-11T08:57:36.232Z,1014.45
2022-09-11T08:58:36.252Z,1014.43
2022-09-11T08:59:36.229Z,1014.44
2022-09-11T09:00:36.280Z,1014.47
2022-09-11T09:01:36.231Z,1014.47
2022-09-11T09:02:36.279Z,1014.46
2022-09-11T09:03:36.172Z,1014.43
2022-09-11T09:04:36.244Z,1014.44
2022-09-11T09:05:36.148Z,1014.49
2022-09-11T09:06:36.204Z,1014.48
2022-09-11T09:07:36.125Z,1014.48
2022-09-11T09:08:36.222Z,1014.49
2022-09-11T09:09:36.122Z,1014.48
2022-09-11T09:10:36.130Z,1014.49
2022-09-11T09:11:36.084Z,1014.51
2022-09-11T09:12:36.144Z,1014.55
2022-09-11T09:13:36.062Z,1014.52
2022-09-11T09:14:36.104Z,1014.52
2022-09-11T09:15:36.087Z,1014.56
2022-09-11T09:17:45.668Z,1014.62
2022-09-11T09:18:45.542Z,1014.52
2022-09-11T09:19:45.663Z,1014.56
2022-09-11T09:20:45.523Z,1014.57
2022-09-11T09:21:45.523Z,1014.58
2022-09-11T09:22:45.500Z,1014.55
2022-09-11T09:23:46.562Z,1014.60
2022-09-11T09:24:45.493Z,1014.65
2022-09-11T09:25:46.578Z,1014.62
2022-09-11T09:26:45.446Z,1014.62
2022-09-11T09:28:06.554Z,1014.64
2022-09-11T09:28:45.431Z,1014.57
2022-09-11T09:29:47.477Z,1014.54
2022-09-11T09:30:45.440Z,1014.55
2022-09-11T09:31:47.437Z,1014.55
2022-09-11T09:32:45.392Z,1014.55
2022-09-11T09:33:45.414Z,1014.58
2022-09-11T09:34:45.382Z,1014.61
2022-09-11T09:35:45.424Z,1014.61
2022-09-11T09:36:45.343Z,1014.63
2022-09-11T09:37:45.428Z,1014.66
2022-09-11T09:38:45.323Z,1014.70
2022-09-11T09:39:45.427Z,1014.68
2022-09-11T09:40:45.300Z,1014.71
2022-09-11T09:41:45.352Z,1014.74
2022-09-11T09:42:45.281Z,1014.72
2022-09-11T09:43:45.366Z,1014.71
2022-09-11T09:44:45.270Z,1014.75
2022-09-11T09:45:45.346Z,1014.74
2022-09-11T09:46:50.154Z,1014.74
2022-09-11T09:47:46.316Z,1014.75
2022-09-11T09:48:45.217Z,1014.77
2022-09-11T09:49:45.275Z,1014.75
2022-09-11T09:50:45.188Z,1014.79
2022-09-11T09:51:45.217Z,1014.90
2022-09-11T09:52:45.162Z,1014.78
2022-09-11T09:53:45.238Z,1014.77
2022-09-11T09:54:45.159Z,1014.73
2022-09-11T09:55:45.247Z,1014.78
2022-09-11T09:56:45.120Z,1014.73
2022-09-11T09:57:45.158Z,1014.86
2022-09-11T09:58:45.097Z,1014.78
2022-09-11T09:59:45.121Z,1014.85
2022-09-11T10:00:45.074Z,1014.92
2022-09-11T10:01:45.400Z,1014.83
2022-09-11T10:02:45.054Z,1014.85
2022-09-11T10:03:45.096Z,1014.84
2022-09-11T10:04:45.048Z,1014.88
2022-09-11T10:05:45.126Z,1014.95
2022-09-11T10:06:45.013Z,1014.90
2022-09-11T10:07:46.045Z,1014.89
2022-09-11T10:08:44.989Z,1014.89
2022-09-11T10:09:45.094Z,1014.89
2022-09-11T10:10:44.966Z,1014.70
2022-09-11T10:11:45.971Z,1014.89
2022-09-11T10:12:44.947Z,1014.72
2022-09-11T10:13:44.960Z,1014.83
2022-09-11T10:14:51.644Z,1014.90
2022-09-11T10:15:47.990Z,1014.69
2022-09-11T10:16:44.901Z,1014.84
2022-09-11T10:17:45.910Z,1014.92
2022-09-11T10:18:45.064Z,1014.89
2022-09-11T10:19:44.951Z,1014.86
2022-09-11T10:20:44.859Z,1014.87
2022-09-11T10:21:44.939Z,1014.87
2022-09-11T10:22:44.837Z,1014.62
2022-09-11T10:23:44.928Z,1014.60
2022-09-11T10:24:44.833Z,1014.76
2022-09-11T10:25:44.844Z,1014.60
2022-09-11T10:26:44.794Z,1014.62
2022-09-11T10:27:44.854Z,1014.61
2022-09-11T10:28:44.771Z,1014.62
2022-09-11T10:29:44.820Z,1014.65
2022-09-11T10:30:44.769Z,1014.89
2022-09-11T10:31:44.780Z,1014.88
2022-09-11T10:32:44.728Z,1014.86
2022-09-11T10:33:44.793Z,1014.67
2022-09-11T10:34:44.722Z,1014.88
2022-09-11T10:35:44.806Z,1014.91
2022-09-11T10:36:44.687Z,1014.93
2022-09-11T10:37:44.733Z,1014.92
2022-09-11T10:38:44.861Z,1014.88
2022-09-11T10:39:44.811Z,1014.89
2022-09-11T10:40:44.640Z,1014.91
2022-09-11T10:41:44.749Z,1014.86
2022-09-11T10:42:44.621Z,1014.70
2022-09-11T10:43:44.658Z,1014.83
2022-09-11T10:44:44.614Z,1014.95
2022-09-11T10:45:44.691Z,1014.79
2022-09-11T10:46:44.579Z,1014.84
2022-09-11T10:47:44.683Z,1014.82
2022-09-11T10:48:44.588Z,1014.87
2022-09-11T10:49:44.654Z,1014.89
2022-09-11T10:50:44.539Z,1014.73
2022-09-11T10:51:47.547Z,1014.58
2022-09-11T10:52:44.514Z,1014.57
2022-09-11T10:53:44.640Z,1014.58
2022-09-11T10:54:44.511Z,1014.55
2022-09-11T10:55:46.583Z,1014.56
2022-09-11T10:56:44.475Z,1014.51
2022-09-11T10:57:46.496Z,1014.55
2022-09-11T10:58:44.581Z,1014.57
2022-09-11T10:59:44.513Z,1014.53
2022-09-11T11:00:44.429Z,1014.51
2022-09-11T11:01:44.530Z,1014.58
2022-09-11T11:02:44.410Z,1014.51
2022-09-11T11:03:44.487Z,1014.57
2022-09-11T11:04:44.403Z,1014.62
2022-09-11T11:05:44.400Z,1014.62
2022-09-11T11:06:44.371Z,1014.61
2022-09-11T11:07:44.413Z,1014.56
2022-09-11T11:08:44.530Z,1014.51
2022-09-11T11:09:44.391Z,1014.51
2022-09-11T11:10:44.324Z,1014.55
2022-09-11T11:11:44.340Z,1014.57
2022-09-11T11:12:44.299Z,1014.58
2022-09-11T11:13:44.353Z,1014.55
2022-09-11T11:14:44.276Z,1014.66
2022-09-11T11:15:44.383Z,1014.57
2022-09-11T11:16:44.257Z,1014.55
2022-09-11T11:17:44.277Z,1014.48
2022-09-11T11:18:44.437Z,1014.55
2022-09-11T11:19:44.293Z,1014.50
2022-09-11T11:20:44.232Z,1014.49
2022-09-11T11:21:44.308Z,1014.52
2022-09-11T11:22:44.209Z,1014.61
2022-09-11T11:23:44.218Z,1014.55
2022-09-11T11:24:44.170Z,1014.54
2022-09-11T11:25:44.299Z,1014.58
2022-09-11T11:26:44.145Z,1014.57
2022-09-11T11:27:44.138Z,1014.61
2022-09-11T11:28:44.433Z,1014.63
2022-09-11T11:29:44.119Z,1014.63
2022-09-11T11:30:44.212Z,1014.62
2022-09-11T11:31:44.515Z,1014.67
2022-09-11T11:32:44.176Z,1014.58
2022-09-11T11:33:44.073Z,1014.63
2022-09-11T11:34:44.085Z,1014.62
2022-09-11T11:35:44.072Z,1014.54
2022-09-11T11:36:44.103Z,1014.62
2022-09-11T11:37:44.031Z,1014.60
2022-09-11T11:38:44.267Z,1014.60
2022-09-11T11:39:44.055Z,1014.56
2022-09-11T11:40:44.076Z,1014.60
2022-09-11T11:41:43.998Z,1014.64
2022-09-11T11:43:53.618Z,1014.64
2022-09-11T11:44:53.514Z,1014.62
2022-09-11T11:45:53.586Z,1014.64
2022-09-11T11:46:53.691Z,1014.63
2022-09-11T11:47:53.486Z,1014.64
2022-09-11T11:48:53.500Z,1014.67
2022-09-11T11:49:53.466Z,1014.71
2022-09-11T11:50:53.564Z,1014.69
2022-09-11T11:51:53.442Z,1014.72
2022-09-11T11:52:53.530Z,1014.75
2022-09-11T11:53:53.418Z,1014.73
2022-09-11T11:54:53.439Z,1014.85
2022-09-11T11:55:53.416Z,1014.92
2022-09-11T11:56:55.417Z,1014.86
2022-09-11T11:57:53.376Z,1014.94
2022-09-11T11:58:54.390Z,1014.98
2022-09-11T11:59:53.353Z,1014.94
2022-09-11T12:00:55.392Z,1014.92
2022-09-11T12:01:53.341Z,1014.89
2022-09-11T12:02:53.397Z,1014.97
2022-09-11T12:03:53.361Z,1014.87
2022-09-11T12:04:54.369Z,1014.87
2022-09-11T12:05:53.309Z,1014.90
2022-09-11T12:06:53.320Z,1014.92
2022-09-11T12:07:53.265Z,1014.93
2022-09-11T12:08:53.333Z,1014.92